Terminal Aerodrome Forecast
Issued by NWS Greer, SC

Current Version | Previous Version | Text Only | Print | Product List | Glossary On
Versions: 1 2 3 4 5 6 7 8 9 10 11 12 13 14 15 16 17 18 19 20 21 22
000
FTUS42 KGSP 261720
TAFGSP
TAF
KGSP 261720Z 2618/2718 06009KT P6SM SCT040
     FM262000 05007KT P6SM VCTS BKN040CB
     FM270000 04005KT P6SM BKN050
     FM270600 02003KT P6SM SCT050
     FM270900 01003KT P6SM SCT240
     FM271600 35006KT P6SM FEW250=

USA.gov is the U.S. government's official web portal to all federal, state and local government web resources and services.